createdAt,value
2019-01-24T00:01:36.247Z,100200.63
2019-01-24T00:04:05.890Z,100207.30
2019-01-24T00:06:35.410Z,100204.77
2019-01-24T00:09:08.322Z,100213.05
2019-01-24T00:11:37.815Z,100216.56
2019-01-24T00:14:07.338Z,100218.25
2019-01-24T00:16:36.854Z,100217.64
2019-01-24T00:19:06.373Z,100219.86
2019-01-24T00:21:35.871Z,100221.16
2019-01-24T00:24:05.443Z,100231.45
2019-01-24T00:26:34.947Z,100226.75
2019-01-24T00:29:04.629Z,100230.39
2019-01-24T00:31:34.156Z,100238.02
2019-01-24T00:34:03.664Z,100237.36
2019-01-24T00:36:33.182Z,100247.16
2019-01-24T00:39:02.774Z,100252.95
2019-01-24T00:41:33.449Z,100254.59
2019-01-24T00:44:03.065Z,100265.56
2019-01-24T00:46:32.580Z,100266.33
2019-01-24T00:49:02.101Z,100274.50
2019-01-24T00:51:31.620Z,100269.08
2019-01-24T00:54:01.142Z,100272.45
2019-01-24T00:56:30.726Z,100274.56
2019-01-24T00:59:00.265Z,100283.11
2019-01-24T01:01:29.864Z,100282.08
2019-01-24T01:04:00.360Z,100282.08
2019-01-24T01:06:29.867Z,100286.77
2019-01-24T01:08:59.394Z,100288.33
2019-01-24T01:11:29.071Z,100291.44
2019-01-24T01:13:58.585Z,100294.47
2019-01-24T01:16:28.093Z,100299.73
2019-01-24T01:18:57.612Z,100307.40
2019-01-24T01:21:27.120Z,100308.34
2019-01-24T01:23:56.638Z,100315.53
2019-01-24T01:26:26.204Z,100313.15
2019-01-24T01:28:55.790Z,100320.64
2019-01-24T01:31:25.289Z,100325.21
2019-01-24T01:33:54.827Z,100317.88
2019-01-24T01:36:24.398Z,100323.09
2019-01-24T01:38:53.973Z,100336.82
2019-01-24T01:41:23.478Z,100331.80
2019-01-24T01:43:52.985Z,100332.51
2019-01-24T01:46:22.502Z,100345.03
2019-01-24T01:48:52.002Z,100343.89
2019-01-24T01:51:21.510Z,100352.56
2019-01-24T01:53:51.114Z,100353.95
2019-01-24T01:56:20.620Z,100350.48
2019-01-24T01:58:50.131Z,100349.98
2019-01-24T02:01:19.659Z,100349.91
2019-01-24T02:03:50.139Z,100356.02
2019-01-24T02:06:20.645Z,100346.30
2019-01-24T02:08:50.170Z,100342.88
2019-01-24T02:11:19.744Z,100347.08
2019-01-24T02:13:49.280Z,100346.55
2019-01-24T02:16:18.775Z,100352.66
2019-01-24T02:18:48.291Z,100353.92
2019-01-24T02:21:17.800Z,100353.77
2019-01-24T02:23:47.328Z,100359.13
2019-01-24T02:26:16.827Z,100361.36
2019-01-24T02:28:46.352Z,100368.73
2019-01-24T02:31:15.849Z,100363.95
2019-01-24T02:33:45.347Z,100364.66
2019-01-24T02:36:14.849Z,100364.36
2019-01-24T02:38:44.389Z,100369.13
2019-01-24T02:41:13.902Z,100369.13
2019-01-24T02:43:43.429Z,100376.14
2019-01-24T02:46:13.893Z,100373.07
2019-01-24T02:48:43.408Z,100372.96
2019-01-24T02:51:12.913Z,100374.77
2019-01-24T02:53:42.428Z,100372.23
2019-01-24T02:56:12.003Z,100372.23
2019-01-24T02:58:41.527Z,100371.39
2019-01-24T03:01:11.035Z,100380.02
2019-01-24T03:03:40.542Z,100382.67
2019-01-24T03:06:10.059Z,100376.92
2019-01-24T03:08:39.570Z,100379.59
2019-01-24T03:11:09.171Z,100375.59
2019-01-24T03:13:38.676Z,100386.45
2019-01-24T03:16:08.197Z,100377.97
2019-01-24T03:18:37.715Z,100381.80
2019-01-24T03:21:07.241Z,100388.12
2019-01-24T03:23:36.765Z,100387.39
2019-01-24T03:26:06.286Z,100384.62
2019-01-24T03:28:35.785Z,100399.10
2019-01-24T03:31:05.342Z,100399.05
2019-01-24T03:33:34.823Z,100400.08
2019-01-24T03:36:04.433Z,100402.34
2019-01-24T03:38:33.925Z,100392.92
2019-01-24T03:41:03.434Z,100402.15
2019-01-24T03:43:32.948Z,100398.16
2019-01-24T03:46:02.460Z,100402.34
2019-01-24T03:48:31.954Z,100396.82
2019-01-24T03:51:01.477Z,100395.80
2019-01-24T03:53:30.978Z,100405.56
2019-01-24T03:56:00.496Z,100408.74
2019-01-24T03:58:29.997Z,100403.51
2019-01-24T04:00:59.685Z,100407.48
2019-01-24T04:03:29.195Z,100404.95
2019-01-24T04:05:58.779Z,100408.48
2019-01-24T04:08:28.278Z,100414.04
2019-01-24T04:10:57.808Z,100410.77
2019-01-24T04:13:27.339Z,100413.86
2019-01-24T04:15:56.918Z,100413.78
2019-01-24T04:18:26.516Z,100418.80
2019-01-24T04:20:56.036Z,100411.70
2019-01-24T04:23:25.560Z,100417.48
2019-01-24T04:25:55.078Z,100417.95
2019-01-24T04:28:24.606Z,100413.44
2019-01-24T04:30:54.173Z,100411.61
2019-01-24T04:33:23.683Z,100412.34
2019-01-24T04:35:53.210Z,100406.09
2019-01-24T04:38:22.729Z,100416.53
2019-01-24T04:40:52.245Z,100408.50
2019-01-24T04:43:21.801Z,100418.16
2019-01-24T04:45:51.413Z,100418.59
2019-01-24T04:48:20.893Z,100418.58
2019-01-24T04:50:50.472Z,100420.31
2019-01-24T04:53:19.973Z,100420.74
2019-01-24T04:55:49.505Z,100422.55
2019-01-24T04:58:18.994Z,100428.61
2019-01-24T05:00:50.049Z,100433.41
2019-01-24T05:03:19.528Z,100396.41
2019-01-24T05:05:49.718Z,100426.03
2019-01-24T05:08:19.266Z,100430.50
2019-01-24T05:10:48.805Z,100421.64
2019-01-24T05:13:18.395Z,100421.42
2019-01-24T05:15:47.913Z,100429.59
2019-01-24T05:18:17.416Z,100432.00
2019-01-24T05:20:47.020Z,100436.32
2019-01-24T05:23:16.511Z,100426.09
2019-01-24T05:25:46.001Z,100433.06
2019-01-24T05:28:15.522Z,100433.28
2019-01-24T05:30:46.087Z,100433.46
2019-01-24T05:33:15.575Z,100434.39
2019-01-24T05:35:45.170Z,100435.83
2019-01-24T05:38:14.763Z,100441.82
2019-01-24T05:40:44.261Z,100448.58
2019-01-24T05:43:13.797Z,100450.32
2019-01-24T05:45:43.369Z,100448.97
2019-01-24T05:48:12.862Z,100459.86
2019-01-24T05:50:42.374Z,100464.35
2019-01-24T05:53:11.853Z,100464.00
2019-01-24T05:55:41.424Z,100465.35
2019-01-24T05:58:10.906Z,100468.34
2019-01-24T06:00:43.047Z,100475.46
2019-01-24T06:03:12.706Z,100475.86
2019-01-24T06:05:42.294Z,100472.09
2019-01-24T06:08:11.818Z,100479.70
2019-01-24T06:10:41.316Z,100478.14
2019-01-24T06:13:10.795Z,100472.28
2019-01-24T06:15:40.341Z,100481.91
2019-01-24T06:18:10.542Z,100479.51
2019-01-24T06:20:40.076Z,100489.80
2019-01-24T06:23:11.117Z,100481.52
2019-01-24T06:25:40.909Z,100487.06
2019-01-24T06:28:10.502Z,100479.76
2019-01-24T06:30:40.054Z,100483.82
2019-01-24T06:33:09.620Z,100488.84
2019-01-24T06:35:39.152Z,100492.31
2019-01-24T06:38:08.650Z,100494.23
2019-01-24T06:40:38.219Z,100488.86
2019-01-24T06:43:07.717Z,100489.52
2019-01-24T06:45:37.206Z,100494.34
2019-01-24T06:48:06.785Z,100490.14
2019-01-24T06:50:36.278Z,100485.86
2019-01-24T06:53:05.766Z,100497.68
2019-01-24T06:55:35.317Z,100495.94
2019-01-24T06:58:04.818Z,100502.27
2019-01-24T07:00:34.298Z,100504.80
2019-01-24T07:03:03.796Z,100508.73
2019-01-24T07:05:33.362Z,100505.45
2019-01-24T07:08:02.860Z,100505.68
2019-01-24T07:10:32.422Z,100507.66
2019-01-24T07:13:01.926Z,100502.64
2019-01-24T07:15:31.401Z,100506.93
2019-01-24T07:18:00.902Z,100510.95
2019-01-24T07:20:30.395Z,100520.60
2019-01-24T07:22:59.885Z,100521.51
2019-01-24T07:25:29.650Z,100516.70
2019-01-24T07:27:59.134Z,100520.14
2019-01-24T07:30:28.700Z,100521.09
2019-01-24T07:32:58.190Z,100530.26
2019-01-24T07:35:27.762Z,100531.84
2019-01-24T07:37:57.255Z,100542.57
2019-01-24T07:40:26.742Z,100542.91
2019-01-24T07:42:56.251Z,100553.20
2019-01-24T07:45:31.398Z,100557.22
2019-01-24T07:48:00.909Z,100561.50
2019-01-24T07:50:30.490Z,100561.59
2019-01-24T07:53:00.009Z,100560.78
2019-01-24T07:55:29.506Z,100559.56
2019-01-24T07:57:59.076Z,100568.59
2019-01-24T08:00:28.945Z,100570.82
2019-01-24T08:02:58.609Z,100574.03
2019-01-24T08:05:28.441Z,100573.14
2019-01-24T08:07:58.042Z,100577.38
2019-01-24T08:10:27.533Z,100576.28
2019-01-24T08:12:57.031Z,100578.33
2019-01-24T08:15:26.534Z,100582.00
2019-01-24T08:17:56.024Z,100589.02
2019-01-24T08:20:26.802Z,100593.98
2019-01-24T08:22:56.303Z,100591.96
2019-01-24T08:25:25.873Z,100591.62
2019-01-24T08:27:55.361Z,100595.04
2019-01-24T08:30:29.767Z,100603.18
2019-01-24T08:32:59.326Z,100602.84
2019-01-24T08:35:28.882Z,100613.27
2019-01-24T08:37:58.445Z,100608.52
2019-01-24T08:40:28.005Z,100609.69
2019-01-24T08:42:57.569Z,100618.25
2019-01-24T08:45:27.072Z,100618.97
2019-01-24T08:47:56.561Z,100617.92
2019-01-24T08:50:26.073Z,100620.89
2019-01-24T08:52:55.653Z,100617.52
2019-01-24T08:55:30.945Z,100624.86
2019-01-24T08:58:00.447Z,100629.33
2019-01-24T09:00:30.023Z,100635.89
2019-01-24T09:02:59.590Z,100623.75
2019-01-24T09:05:29.082Z,100626.27
2019-01-24T09:07:59.553Z,100624.75
2019-01-24T09:10:31.587Z,100627.66
2019-01-24T09:13:02.124Z,100626.20
2019-01-24T09:15:31.699Z,100629.08
2019-01-24T09:18:01.195Z,100613.30
2019-01-24T09:20:30.709Z,100626.74
2019-01-24T09:23:00.195Z,100618.67
2019-01-24T09:25:29.762Z,100628.64
2019-01-24T09:27:59.326Z,100627.91
2019-01-24T09:30:29.152Z,100639.33
2019-01-24T09:32:58.638Z,100641.73
2019-01-24T09:35:29.008Z,100645.95
2019-01-24T09:37:58.533Z,100643.80
2019-01-24T09:40:28.132Z,100639.31
2019-01-24T09:42:57.735Z,100641.05
2019-01-24T09:45:28.648Z,100637.23
2019-01-24T09:47:59.980Z,100569.09
2019-01-24T09:50:29.988Z,100644.36
2019-01-24T09:52:59.554Z,100635.42
2019-01-24T09:55:29.150Z,100644.69
2019-01-24T09:57:58.738Z,100639.14
2019-01-24T10:00:30.394Z,100641.50
2019-01-24T10:03:00.060Z,100644.67
2019-01-24T10:05:29.638Z,100644.14
2019-01-24T10:07:59.148Z,100640.37
2019-01-24T10:10:29.230Z,100645.56
2019-01-24T10:12:58.877Z,100645.35
2019-01-24T10:15:28.442Z,100648.34
2019-01-24T10:17:57.973Z,100642.03
2019-01-24T10:20:28.294Z,100643.55
2019-01-24T10:22:57.799Z,100638.13
2019-01-24T10:25:29.966Z,100641.30
2019-01-24T10:28:00.504Z,100631.73
2019-01-24T10:30:30.451Z,100630.20
2019-01-24T10:33:00.102Z,100630.20
2019-01-24T10:35:29.609Z,100633.37
2019-01-24T10:37:59.193Z,100632.59
2019-01-24T10:40:30.072Z,100641.55
2019-01-24T10:42:59.650Z,100638.05
2019-01-24T10:45:29.239Z,100636.90
2019-01-24T10:47:58.900Z,100631.80
2019-01-24T10:50:28.598Z,100632.29
2019-01-24T10:52:58.187Z,100634.22
2019-01-24T10:55:28.455Z,100630.34
2019-01-24T10:58:00.376Z,100628.25
2019-01-24T11:00:33.236Z,100629.73
2019-01-24T11:03:04.524Z,100633.23
2019-01-24T11:05:34.229Z,100639.45
2019-01-24T11:08:03.858Z,100644.86
2019-01-24T11:10:33.387Z,100637.95
2019-01-24T11:13:02.880Z,100633.28
2019-01-24T11:15:32.482Z,100637.95
2019-01-24T11:18:02.060Z,100638.78
2019-01-24T11:20:31.555Z,100634.23
2019-01-24T11:23:02.212Z,100630.09
2019-01-24T11:25:32.291Z,100632.77
2019-01-24T11:28:01.859Z,100633.93
2019-01-24T11:30:31.735Z,100638.05
2019-01-24T11:33:01.337Z,100633.85
2019-01-24T11:35:32.796Z,100634.86
2019-01-24T11:38:02.336Z,100634.86
2019-01-24T11:40:31.903Z,100623.84
2019-01-24T11:43:01.430Z,100627.44
2019-01-24T11:45:33.786Z,100627.17
2019-01-24T11:48:03.355Z,100627.11
2019-01-24T11:50:32.964Z,100624.97
2019-01-24T11:53:02.616Z,100624.78
2019-01-24T11:55:32.327Z,100630.06
2019-01-24T11:58:01.885Z,100616.41
2019-01-24T12:00:36.099Z,100615.54
2019-01-24T12:03:06.855Z,100613.27
2019-01-24T12:05:36.435Z,100601.56
2019-01-24T12:08:07.345Z,100607.29
2019-01-24T12:10:37.831Z,100607.52
2019-01-24T12:13:07.446Z,100606.57
2019-01-24T12:15:37.019Z,100605.42
2019-01-24T12:18:06.706Z,100605.98
2019-01-24T12:20:36.275Z,100603.86
2019-01-24T12:23:05.875Z,100597.14
2019-01-24T12:25:35.368Z,100605.22
2019-01-24T12:28:05.852Z,100600.41
2019-01-24T12:30:36.151Z,100609.59
2019-01-24T12:33:06.693Z,100608.33
2019-01-24T12:35:36.699Z,100613.24
2019-01-24T12:38:06.402Z,100615.47
2019-01-24T12:40:35.972Z,100623.86
2019-01-24T12:43:05.687Z,100616.80
2019-01-24T12:45:36.749Z,100614.53
2019-01-24T12:48:07.294Z,100612.04
2019-01-24T12:50:36.980Z,100607.60
2019-01-24T12:53:07.826Z,100606.30
2019-01-24T12:55:37.537Z,100603.37
2019-01-24T12:58:07.275Z,100616.97
2019-01-24T13:00:38.581Z,100614.40
2019-01-24T13:03:08.322Z,100619.16
2019-01-24T13:05:38.963Z,100606.37
2019-01-24T13:08:08.618Z,100605.98
2019-01-24T13:10:39.980Z,100610.00
2019-01-24T13:13:10.151Z,100610.52
2019-01-24T13:15:39.889Z,100607.05
2019-01-24T13:18:10.397Z,100615.30
2019-01-24T13:20:39.919Z,100618.48
2019-01-24T13:23:09.455Z,100615.44
2019-01-24T13:25:38.971Z,100618.69
2019-01-24T13:28:08.500Z,100618.84
2019-01-24T13:30:37.999Z,100619.31
2019-01-24T13:33:07.641Z,100620.06
2019-01-24T13:35:37.460Z,100624.66
2019-01-24T13:38:07.396Z,100623.30
2019-01-24T13:40:36.958Z,100622.20
2019-01-24T13:43:07.554Z,100625.84
2019-01-24T13:45:38.902Z,100623.95
2019-01-24T13:48:08.478Z,100624.80
2019-01-24T13:50:38.026Z,100623.11
2019-01-24T13:53:07.780Z,100618.84
2019-01-24T13:55:37.357Z,100622.61
2019-01-24T13:58:07.300Z,100618.36
2019-01-24T14:00:38.688Z,100617.78
2019-01-24T14:03:20.695Z,100622.39
2019-01-24T14:05:50.308Z,100624.98
2019-01-24T14:08:19.811Z,100627.89
2019-01-24T14:10:49.300Z,100625.71
2019-01-24T14:13:18.789Z,100625.71
2019-01-24T14:15:48.276Z,100619.06
2019-01-24T14:18:17.786Z,100614.33
2019-01-24T14:20:47.280Z,100614.43
2019-01-24T14:23:16.839Z,100620.70
2019-01-24T14:25:46.402Z,100616.23
2019-01-24T14:28:15.976Z,100621.91
2019-01-24T14:30:45.451Z,100628.05
2019-01-24T14:33:14.954Z,100625.97
2019-01-24T14:35:44.461Z,100628.75
2019-01-24T14:38:13.953Z,100628.93
2019-01-24T14:40:43.438Z,100629.98
2019-01-24T14:43:12.942Z,100630.58
2019-01-24T14:45:42.421Z,100626.29
2019-01-24T14:48:12.031Z,100624.63
2019-01-24T14:50:41.628Z,100629.97
2019-01-24T14:53:11.129Z,100641.30
2019-01-24T14:55:40.645Z,100643.33
2019-01-24T14:58:10.252Z,100638.42
2019-01-24T15:00:43.297Z,100649.27
2019-01-24T15:03:12.846Z,100654.34
2019-01-24T15:05:42.339Z,100668.75
2019-01-24T15:08:11.991Z,100662.70
2019-01-24T15:10:41.491Z,100660.77
2019-01-24T15:13:10.983Z,100663.66
2019-01-24T15:15:41.655Z,100670.97
2019-01-24T15:18:11.293Z,100667.36
2019-01-24T15:20:40.895Z,100662.88
2019-01-24T15:23:10.413Z,100668.11
2019-01-24T15:25:39.923Z,100672.20
2019-01-24T15:28:09.433Z,100670.67
2019-01-24T15:30:38.922Z,100667.75
2019-01-24T15:33:08.526Z,100668.67
2019-01-24T15:35:38.014Z,100670.96
2019-01-24T15:38:07.569Z,100674.69
2019-01-24T15:40:37.061Z,100681.49
2019-01-24T15:43:06.722Z,100685.58
2019-01-24T15:45:36.222Z,100686.12
2019-01-24T15:48:06.369Z,100684.00
2019-01-24T15:50:35.856Z,100688.63
2019-01-24T15:53:05.433Z,100679.98
2019-01-24T15:55:34.923Z,100679.98
2019-01-24T15:58:04.632Z,100698.13
2019-01-24T16:00:34.220Z,100692.04
2019-01-24T16:03:03.786Z,100688.59
2019-01-24T16:05:33.279Z,100696.70
2019-01-24T16:08:02.849Z,100704.16
2019-01-24T16:10:32.361Z,100700.91
2019-01-24T16:13:01.959Z,100706.69
2019-01-24T16:15:36.437Z,100705.34
2019-01-24T16:18:10.034Z,100703.90
2019-01-24T16:20:39.618Z,100704.61
2019-01-24T16:23:09.206Z,100707.54
2019-01-24T16:25:39.139Z,100715.37
2019-01-24T16:28:08.767Z,100718.58
2019-01-24T16:30:38.748Z,100717.28
2019-01-24T16:33:08.967Z,100722.77
2019-01-24T16:35:39.547Z,100726.39
2019-01-24T16:38:09.828Z,100735.73
2019-01-24T16:40:39.565Z,100737.58
2019-01-24T16:43:09.221Z,100725.64
2019-01-24T16:45:38.930Z,100731.31
2019-01-24T16:48:08.520Z,100732.59
2019-01-24T16:50:38.108Z,100729.70
2019-01-24T16:53:07.635Z,100737.58
2019-01-24T16:55:37.279Z,100737.91
2019-01-24T16:58:07.878Z,100739.83
2019-01-24T17:00:43.726Z,100741.06
2019-01-24T17:03:13.335Z,100743.41
2019-01-24T17:05:42.942Z,100746.56
2019-01-24T17:08:16.524Z,100750.73
2019-01-24T17:10:43.953Z,100751.27
2019-01-24T17:13:13.553Z,100741.22
2019-01-24T17:15:43.114Z,100745.25
2019-01-24T17:18:12.642Z,100743.73
2019-01-24T17:20:42.175Z,100743.75
2019-01-24T17:23:11.793Z,100739.60
2019-01-24T17:25:41.322Z,100736.88
2019-01-24T17:28:10.791Z,100738.20
2019-01-24T17:30:40.540Z,100735.61
2019-01-24T17:33:10.112Z,100731.08
2019-01-24T17:35:40.815Z,100741.63
2019-01-24T17:38:10.513Z,100738.03
2019-01-24T17:40:40.134Z,100737.23
2019-01-24T17:43:09.742Z,100737.20
2019-01-24T17:45:39.370Z,100745.25
2019-01-24T17:48:08.964Z,100734.30
2019-01-24T17:50:38.499Z,100736.34
2019-01-24T17:53:08.076Z,100741.00
2019-01-24T17:55:40.855Z,100747.69
2019-01-24T17:58:11.665Z,100751.50
2019-01-24T18:00:45.648Z,100748.69
2019-01-24T18:03:15.259Z,100758.34
2019-01-24T18:05:44.843Z,100760.30
2019-01-24T18:08:14.472Z,100759.97
2019-01-24T18:10:44.009Z,100756.24
2019-01-24T18:13:13.549Z,100762.87
2019-01-24T18:15:43.172Z,100765.00
2019-01-24T18:18:15.392Z,100760.98
2019-01-24T18:20:45.547Z,100763.33
2019-01-24T18:23:15.138Z,100763.76
2019-01-24T18:25:44.676Z,100771.80
2019-01-24T18:28:14.427Z,100770.16
2019-01-24T18:30:44.047Z,100775.06
2019-01-24T18:33:13.664Z,100779.69
2019-01-24T18:35:43.258Z,100785.45
2019-01-24T18:38:12.789Z,100780.58
2019-01-24T18:40:43.450Z,100790.51
2019-01-24T18:43:22.279Z,100792.53
2019-01-24T18:45:53.101Z,100789.72
2019-01-24T18:48:23.635Z,100802.16
2019-01-24T18:50:53.174Z,100800.95
2019-01-24T18:53:22.949Z,100805.95
2019-01-24T18:55:52.547Z,100805.61
2019-01-24T18:58:22.163Z,100797.27
2019-01-24T19:00:51.685Z,100804.29
2019-01-24T19:03:21.241Z,100802.36
2019-01-24T19:05:50.751Z,100804.80
2019-01-24T19:08:20.269Z,100802.97
2019-01-24T19:10:49.920Z,100811.61
2019-01-24T19:13:19.525Z,100809.70
2019-01-24T19:15:49.790Z,100814.28
2019-01-24T19:18:19.305Z,100813.47
2019-01-24T19:20:48.859Z,100832.03
2019-01-24T19:23:18.373Z,100830.84
2019-01-24T19:25:47.963Z,100835.61
2019-01-24T19:28:18.639Z,100845.70
2019-01-24T19:30:48.240Z,100841.41
2019-01-24T19:33:17.879Z,100838.37
2019-01-24T19:35:47.359Z,100840.37
2019-01-24T19:38:16.941Z,100842.69
2019-01-24T19:40:46.471Z,100845.29
2019-01-24T19:43:16.076Z,100845.12
2019-01-24T19:45:46.535Z,100843.37
2019-01-24T19:48:16.085Z,100848.89
2019-01-24T19:50:45.696Z,100844.89
2019-01-24T19:53:15.217Z,100846.43
2019-01-24T19:55:44.708Z,100851.29
2019-01-24T19:58:14.222Z,100855.01
2019-01-24T20:00:43.731Z,100862.65
2019-01-24T20:03:13.242Z,100864.66
2019-01-24T20:05:43.726Z,100865.15
2019-01-24T20:08:13.260Z,100860.41
2019-01-24T20:10:42.761Z,100864.66
2019-01-24T20:13:12.289Z,100870.96
2019-01-24T20:15:41.883Z,100877.36
2019-01-24T20:18:11.475Z,100876.81
2019-01-24T20:20:40.995Z,100876.05
2019-01-24T20:23:10.503Z,100883.91
2019-01-24T20:25:40.080Z,100886.98
2019-01-24T20:28:09.661Z,100880.22
2019-01-24T20:30:39.182Z,100886.53
2019-01-24T20:33:08.784Z,100886.11
2019-01-24T20:35:42.028Z,100887.09
2019-01-24T20:38:11.880Z,100890.75
2019-01-24T20:40:41.392Z,100891.13
2019-01-24T20:43:12.195Z,100886.88
2019-01-24T20:45:41.693Z,100894.52
2019-01-24T20:48:11.288Z,100886.81
2019-01-24T20:50:40.811Z,100888.17
2019-01-24T20:53:10.405Z,100885.77
2019-01-24T20:55:40.458Z,100890.38
2019-01-24T20:58:10.308Z,100884.47
2019-01-24T21:00:39.826Z,100884.30
2019-01-24T21:03:09.415Z,100879.88
2019-01-24T21:05:38.952Z,100879.59
2019-01-24T21:08:08.475Z,100882.59
2019-01-24T21:10:37.983Z,100880.29
2019-01-24T21:13:07.565Z,100876.98
2019-01-24T21:15:37.085Z,100880.47
2019-01-24T21:18:06.613Z,100876.03
2019-01-24T21:20:36.226Z,100874.08
2019-01-24T21:23:05.886Z,100880.47
2019-01-24T21:25:35.395Z,100877.16
2019-01-24T21:28:05.259Z,100871.47
2019-01-24T21:30:35.976Z,100875.72
2019-01-24T21:33:06.560Z,100877.64
2019-01-24T21:35:36.176Z,100873.98
2019-01-24T21:38:07.636Z,100870.38
2019-01-24T21:40:37.232Z,100870.42
2019-01-24T21:43:06.903Z,100875.34
2019-01-24T21:45:37.193Z,100872.72
2019-01-24T21:48:07.129Z,100878.41
2019-01-24T21:50:36.783Z,100877.16
2019-01-24T21:53:06.598Z,100874.64
2019-01-24T21:55:36.451Z,100881.58
2019-01-24T21:58:08.213Z,100882.94
2019-01-24T22:00:38.800Z,100881.41
2019-01-24T22:03:08.323Z,100889.16
2019-01-24T22:05:37.970Z,100890.33
2019-01-24T22:08:07.508Z,100888.77
2019-01-24T22:10:37.096Z,100888.66
2019-01-24T22:13:06.651Z,100895.71
2019-01-24T22:15:36.232Z,100888.77
2019-01-24T22:18:06.636Z,100891.07
2019-01-24T22:20:36.166Z,100889.64
2019-01-24T22:23:05.887Z,100893.79
2019-01-24T22:25:35.883Z,100889.16
2019-01-24T22:28:06.338Z,100897.07
2019-01-24T22:30:45.031Z,100897.94
2019-01-24T22:33:14.606Z,100894.35
2019-01-24T22:35:44.123Z,100891.45
2019-01-24T22:38:13.616Z,100893.89
2019-01-24T22:40:43.127Z,100888.77
2019-01-24T22:43:12.620Z,100896.51
2019-01-24T22:45:42.206Z,100899.09
2019-01-24T22:48:11.983Z,100896.22
2019-01-24T22:50:41.503Z,100897.75
2019-01-24T22:53:11.047Z,100902.97
2019-01-24T22:55:40.546Z,100903.16
2019-01-24T22:58:10.123Z,100902.70
2019-01-24T23:00:51.640Z,100904.79
2019-01-24T23:03:31.671Z,100906.16
2019-01-24T23:06:01.247Z,100906.62
2019-01-24T23:08:30.946Z,100906.05
2019-01-24T23:11:00.477Z,100908.08
2019-01-24T23:13:30.040Z,100911.84
2019-01-24T23:15:59.552Z,100917.06
2019-01-24T23:18:29.048Z,100912.89
2019-01-24T23:20:58.560Z,100910.86
2019-01-24T23:23:28.050Z,100906.72
2019-01-24T23:25:57.574Z,100911.33
2019-01-24T23:28:27.063Z,100915.28
2019-01-24T23:30:56.643Z,100917.61
2019-01-24T23:33:26.135Z,100910.48
2019-01-24T23:35:55.641Z,100914.91
2019-01-24T23:38:25.206Z,100918.86
2019-01-24T23:40:54.703Z,100920.38
2019-01-24T23:43:24.232Z,100920.56
2019-01-24T23:45:53.806Z,100926.45
2019-01-24T23:48:23.298Z,100925.06
2019-01-24T23:50:52.811Z,100933.00
2019-01-24T23:53:22.307Z,100937.25
2019-01-24T23:55:51.845Z,100943.52
2019-01-24T23:58:21.343Z,100944.20
